sensor_id;sensor_type;location;lat;lon;timestamp;P1;durP1;ratioP1;P2;durP2;ratioP2
71639;SDS011;60912;48.968;10.124;2023-02-01T00:00:48;7.28;;;3.97;;
71639;SDS011;60912;48.968;10.124;2023-02-01T00:03:17;7.20;;;3.73;;
71639;SDS011;60912;48.968;10.124;2023-02-01T00:05:44;7.65;;;3.90;;
71639;SDS011;60912;48.968;10.124;2023-02-01T00:08:12;7.88;;;3.63;;
71639;SDS011;60912;48.968;10.124;2023-02-01T00:10:43;6.85;;;3.38;;
71639;SDS011;60912;48.968;10.124;2023-02-01T00:13:09;9.67;;;3.70;;
71639;SDS011;60912;48.968;10.124;2023-02-01T00:15:34;8.83;;;3.87;;
71639;SDS011;60912;48.968;10.124;2023-02-01T00:18:00;8.10;;;3.50;;
71639;SDS011;60912;48.968;10.124;2023-02-01T00:20:31;8.18;;;4.10;;
71639;SDS011;60912;48.968;10.124;2023-02-01T00:22:59;7.10;;;3.80;;
71639;SDS011;60912;48.968;10.124;2023-02-01T00:28:24;5.55;;;3.40;;
71639;SDS011;60912;48.968;10.124;2023-02-01T00:30:57;7.37;;;3.40;;
71639;SDS011;60912;48.968;10.124;2023-02-01T00:33:37;7.72;;;3.65;;
71639;SDS011;60912;48.968;10.124;2023-02-01T00:36:20;7.00;;;3.45;;
71639;SDS011;60912;48.968;10.124;2023-02-01T00:38:46;6.73;;;3.33;;
71639;SDS011;60912;48.968;10.124;2023-02-01T00:43:38;6.10;;;3.30;;
71639;SDS011;60912;48.968;10.124;2023-02-01T00:46:04;8.00;;;3.67;;
71639;SDS011;60912;48.968;10.124;2023-02-01T00:48:30;6.88;;;3.30;;
71639;SDS011;60912;48.968;10.124;2023-02-01T00:51:01;8.85;;;3.42;;
71639;SDS011;60912;48.968;10.124;2023-02-01T00:53:28;6.50;;;3.20;;
71639;SDS011;60912;48.968;10.124;2023-02-01T00:55:54;8.73;;;3.45;;
71639;SDS011;60912;48.968;10.124;2023-02-01T00:58:19;6.43;;;3.20;;
71639;SDS011;60912;48.968;10.124;2023-02-01T01:00:45;7.15;;;3.38;;
71639;SDS011;60912;48.968;10.124;2023-02-01T01:03:14;7.00;;;2.97;;
71639;SDS011;60912;48.968;10.124;2023-02-01T01:05:58;7.35;;;3.60;;
71639;SDS011;60912;48.968;10.124;2023-02-01T01:08:26;6.07;;;3.13;;
71639;SDS011;60912;48.968;10.124;2023-02-01T01:10:52;6.93;;;3.50;;
71639;SDS011;60912;48.968;10.124;2023-02-01T01:13:18;5.87;;;3.10;;
71639;SDS011;60912;48.968;10.124;2023-02-01T01:15:44;4.90;;;2.70;;
71639;SDS011;60912;48.968;10.124;2023-02-01T01:18:15;5.65;;;2.75;;
71639;SDS011;60912;48.968;10.124;2023-02-01T01:20:43;5.50;;;3.00;;
71639;SDS011;60912;48.968;10.124;2023-02-01T01:23:14;5.78;;;2.90;;
71639;SDS011;60912;48.968;10.124;2023-02-01T01:25:40;5.73;;;2.97;;
71639;SDS011;60912;48.968;10.124;2023-02-01T01:28:18;6.22;;;2.95;;
71639;SDS011;60912;48.968;10.124;2023-02-01T01:30:44;6.17;;;2.80;;
71639;SDS011;60912;48.968;10.124;2023-02-01T01:33:12;5.43;;;2.58;;
71639;SDS011;60912;48.968;10.124;2023-02-01T01:36:04;4.95;;;2.45;;
71639;SDS011;60912;48.968;10.124;2023-02-01T01:38:42;4.63;;;2.40;;
71639;SDS011;60912;48.968;10.124;2023-02-01T01:41:56;6.35;;;2.50;;
71639;SDS011;60912;48.968;10.124;2023-02-01T01:44:56;5.95;;;2.42;;
71639;SDS011;60912;48.968;10.124;2023-02-01T01:47:25;4.28;;;2.30;;
71639;SDS011;60912;48.968;10.124;2023-02-01T01:49:53;4.10;;;2.00;;
71639;SDS011;60912;48.968;10.124;2023-02-01T01:52:19;4.80;;;2.30;;
71639;SDS011;60912;48.968;10.124;2023-02-01T01:54:45;3.97;;;2.10;;
71639;SDS011;60912;48.968;10.124;2023-02-01T01:57:18;5.35;;;2.28;;
71639;SDS011;60912;48.968;10.124;2023-02-01T01:59:46;3.92;;;2.20;;
71639;SDS011;60912;48.968;10.124;2023-02-01T02:02:15;4.20;;;1.90;;
71639;SDS011;60912;48.968;10.124;2023-02-01T02:04:43;4.23;;;2.20;;
71639;SDS011;60912;48.968;10.124;2023-02-01T02:07:10;4.78;;;2.30;;
71639;SDS011;60912;48.968;10.124;2023-02-01T02:09:46;3.90;;;1.90;;
71639;SDS011;60912;48.968;10.124;2023-02-01T02:12:15;4.93;;;2.13;;
71639;SDS011;60912;48.968;10.124;2023-02-01T02:14:41;3.70;;;2.00;;
71639;SDS011;60912;48.968;10.124;2023-02-01T02:28:37;4.57;;;2.10;;
71639;SDS011;60912;48.968;10.124;2023-02-01T02:37:08;4.38;;;2.00;;
71639;SDS011;60912;48.968;10.124;2023-02-01T02:39:56;4.70;;;2.07;;
71639;SDS011;60912;48.968;10.124;2023-02-01T02:43:09;4.00;;;2.10;;
71639;SDS011;60912;48.968;10.124;2023-02-01T02:49:34;4.10;;;2.10;;
71639;SDS011;60912;48.968;10.124;2023-02-01T02:52:16;3.70;;;1.67;;
71639;SDS011;60912;48.968;10.124;2023-02-01T02:55:03;3.87;;;1.77;;
71639;SDS011;60912;48.968;10.124;2023-02-01T02:57:40;5.18;;;1.52;;
71639;SDS011;60912;48.968;10.124;2023-02-01T03:00:32;3.20;;;1.60;;
71639;SDS011;60912;48.968;10.124;2023-02-01T03:03:27;3.35;;;1.60;;
71639;SDS011;60912;48.968;10.124;2023-02-01T03:06:14;3.67;;;1.60;;
71639;SDS011;60912;48.968;10.124;2023-02-01T03:08:43;3.37;;;1.43;;
71639;SDS011;60912;48.968;10.124;2023-02-01T03:11:11;3.28;;;1.63;;
71639;SDS011;60912;48.968;10.124;2023-02-01T03:14:17;3.90;;;1.77;;
71639;SDS011;60912;48.968;10.124;2023-02-01T03:16:51;3.88;;;1.63;;
71639;SDS011;60912;48.968;10.124;2023-02-01T03:20:03;3.15;;;1.50;;
71639;SDS011;60912;48.968;10.124;2023-02-01T03:22:33;4.30;;;1.67;;
71639;SDS011;60912;48.968;10.124;2023-02-01T03:25:13;3.70;;;1.70;;
71639;SDS011;60912;48.968;10.124;2023-02-01T03:27:51;3.33;;;1.83;;
71639;SDS011;60912;48.968;10.124;2023-02-01T03:30:27;6.03;;;1.77;;
71639;SDS011;60912;48.968;10.124;2023-02-01T03:32:56;3.28;;;1.65;;
71639;SDS011;60912;48.968;10.124;2023-02-01T03:38:28;4.20;;;1.67;;
71639;SDS011;60912;48.968;10.124;2023-02-01T03:41:27;3.90;;;1.60;;
71639;SDS011;60912;48.968;10.124;2023-02-01T03:44:20;2.95;;;1.40;;
71639;SDS011;60912;48.968;10.124;2023-02-01T03:47:00;3.50;;;1.60;;
71639;SDS011;60912;48.968;10.124;2023-02-01T03:52:30;3.50;;;1.65;;
71639;SDS011;60912;48.968;10.124;2023-02-01T03:55:01;3.30;;;1.70;;
71639;SDS011;60912;48.968;10.124;2023-02-01T03:57:31;3.47;;;1.40;;
71639;SDS011;60912;48.968;10.124;2023-02-01T04:00:07;3.30;;;1.60;;
71639;SDS011;60912;48.968;10.124;2023-02-01T04:02:36;3.43;;;1.53;;
71639;SDS011;60912;48.968;10.124;2023-02-01T04:05:02;3.10;;;1.60;;
71639;SDS011;60912;48.968;10.124;2023-02-01T04:07:27;3.90;;;1.77;;
71639;SDS011;60912;48.968;10.124;2023-02-01T04:09:53;4.23;;;1.47;;
71639;SDS011;60912;48.968;10.124;2023-02-01T04:12:18;4.00;;;1.83;;
71639;SDS011;60912;48.968;10.124;2023-02-01T04:14:47;5.28;;;1.85;;
71639;SDS011;60912;48.968;10.124;2023-02-01T04:17:12;3.50;;;1.70;;
71639;SDS011;60912;48.968;10.124;2023-02-01T04:19:38;4.03;;;1.70;;
71639;SDS011;60912;48.968;10.124;2023-02-01T04:22:03;4.57;;;1.70;;
71639;SDS011;60912;48.968;10.124;2023-02-01T04:31:11;4.15;;;1.85;;
71639;SDS011;60912;48.968;10.124;2023-02-01T04:36:23;3.43;;;2.00;;
71639;SDS011;60912;48.968;10.124;2023-02-01T04:39:21;3.72;;;1.80;;
71639;SDS011;60912;48.968;10.124;2023-02-01T04:41:52;4.72;;;1.80;;
71639;SDS011;60912;48.968;10.124;2023-02-01T04:44:20;3.90;;;1.80;;
71639;SDS011;60912;48.968;10.124;2023-02-01T04:46:46;3.97;;;1.60;;
71639;SDS011;60912;48.968;10.124;2023-02-01T04:49:12;4.37;;;1.93;;
71639;SDS011;60912;48.968;10.124;2023-02-01T04:51:50;3.50;;;1.73;;
71639;SDS011;60912;48.968;10.124;2023-02-01T04:54:21;3.45;;;1.50;;
71639;SDS011;60912;48.968;10.124;2023-02-01T04:56:46;4.13;;;2.00;;
71639;SDS011;60912;48.968;10.124;2023-02-01T04:59:21;4.45;;;1.85;;
71639;SDS011;60912;48.968;10.124;2023-02-01T05:01:48;4.33;;;1.90;;
71639;SDS011;60912;48.968;10.124;2023-02-01T05:04:14;3.28;;;1.65;;
71639;SDS011;60912;48.968;10.124;2023-02-01T05:06:58;4.07;;;1.80;;
71639;SDS011;60912;48.968;10.124;2023-02-01T05:09:23;4.77;;;1.90;;
71639;SDS011;60912;48.968;10.124;2023-02-01T05:11:48;4.70;;;2.00;;
71639;SDS011;60912;48.968;10.124;2023-02-01T05:14:33;5.03;;;1.70;;
71639;SDS011;60912;48.968;10.124;2023-02-01T05:16:59;3.63;;;1.80;;
71639;SDS011;60912;48.968;10.124;2023-02-01T05:19:24;3.70;;;1.77;;
71639;SDS011;60912;48.968;10.124;2023-02-01T05:24:31;4.72;;;1.90;;
71639;SDS011;60912;48.968;10.124;2023-02-01T05:26:56;3.50;;;1.80;;
71639;SDS011;60912;48.968;10.124;2023-02-01T05:29:29;4.43;;;1.90;;
71639;SDS011;60912;48.968;10.124;2023-02-01T05:31:55;4.18;;;2.10;;
71639;SDS011;60912;48.968;10.124;2023-02-01T05:34:20;3.50;;;1.90;;
71639;SDS011;60912;48.968;10.124;2023-02-01T05:36:49;3.43;;;1.90;;
71639;SDS011;60912;48.968;10.124;2023-02-01T05:39:17;4.45;;;1.90;;
71639;SDS011;60912;48.968;10.124;2023-02-01T05:41:43;3.78;;;2.03;;
71639;SDS011;60912;48.968;10.124;2023-02-01T05:44:10;5.07;;;2.00;;
71639;SDS011;60912;48.968;10.124;2023-02-01T05:46:35;4.13;;;1.70;;
71639;SDS011;60912;48.968;10.124;2023-02-01T05:49:01;4.00;;;1.97;;
71639;SDS011;60912;48.968;10.124;2023-02-01T05:51:27;4.00;;;1.95;;
71639;SDS011;60912;48.968;10.124;2023-02-01T05:53:52;4.57;;;2.00;;
71639;SDS011;60912;48.968;10.124;2023-02-01T05:56:17;4.13;;;2.20;;
71639;SDS011;60912;48.968;10.124;2023-02-01T05:58:43;4.13;;;2.00;;
71639;SDS011;60912;48.968;10.124;2023-02-01T06:01:08;5.32;;;2.00;;
71639;SDS011;60912;48.968;10.124;2023-02-01T06:03:34;4.80;;;2.37;;
71639;SDS011;60912;48.968;10.124;2023-02-01T06:05:59;5.43;;;2.10;;
71639;SDS011;60912;48.968;10.124;2023-02-01T06:08:26;3.22;;;1.58;;
71639;SDS011;60912;48.968;10.124;2023-02-01T06:10:56;5.20;;;2.20;;
71639;SDS011;60912;48.968;10.124;2023-02-01T06:13:25;6.05;;;2.20;;
71639;SDS011;60912;48.968;10.124;2023-02-01T06:15:51;4.88;;;2.10;;
71639;SDS011;60912;48.968;10.124;2023-02-01T06:18:17;3.87;;;1.97;;
71639;SDS011;60912;48.968;10.124;2023-02-01T06:20:43;5.25;;;2.08;;
71639;SDS011;60912;48.968;10.124;2023-02-01T06:23:09;3.90;;;2.13;;
71639;SDS011;60912;48.968;10.124;2023-02-01T06:25:34;4.53;;;2.03;;
71639;SDS011;60912;48.968;10.124;2023-02-01T06:28:00;3.70;;;1.90;;
71639;SDS011;60912;48.968;10.124;2023-02-01T06:30:49;4.43;;;2.10;;
71639;SDS011;60912;48.968;10.124;2023-02-01T06:33:14;4.83;;;2.83;;
71639;SDS011;60912;48.968;10.124;2023-02-01T06:35:41;5.45;;;2.20;;
71639;SDS011;60912;48.968;10.124;2023-02-01T06:41:02;4.95;;;2.10;;
71639;SDS011;60912;48.968;10.124;2023-02-01T06:43:34;4.47;;;1.80;;
71639;SDS011;60912;48.968;10.124;2023-02-01T06:46:05;5.93;;;2.55;;
71639;SDS011;60912;48.968;10.124;2023-02-01T06:48:33;4.55;;;2.50;;
71639;SDS011;60912;48.968;10.124;2023-02-01T06:51:21;5.40;;;2.30;;
71639;SDS011;60912;48.968;10.124;2023-02-01T06:57:37;5.93;;;2.30;;
71639;SDS011;60912;48.968;10.124;2023-02-01T07:07:08;3.90;;;1.93;;
71639;SDS011;60912;48.968;10.124;2023-02-01T07:12:55;4.68;;;2.00;;
71639;SDS011;60912;48.968;10.124;2023-02-01T07:15:53;3.35;;;1.67;;
71639;SDS011;60912;48.968;10.124;2023-02-01T07:25:02;4.05;;;2.10;;
71639;SDS011;60912;48.968;10.124;2023-02-01T07:27:42;6.47;;;2.30;;
71639;SDS011;60912;48.968;10.124;2023-02-01T07:30:20;7.32;;;2.55;;
71639;SDS011;60912;48.968;10.124;2023-02-01T07:36:48;4.70;;;2.00;;
71639;SDS011;60912;48.968;10.124;2023-02-01T07:39:46;10.82;;;2.92;;
71639;SDS011;60912;48.968;10.124;2023-02-01T07:46:00;6.43;;;2.58;;
71639;SDS011;60912;48.968;10.124;2023-02-01T07:51:35;5.90;;;2.83;;
71639;SDS011;60912;48.968;10.124;2023-02-01T07:54:12;5.50;;;2.63;;
71639;SDS011;60912;48.968;10.124;2023-02-01T07:57:16;6.60;;;2.57;;
71639;SDS011;60912;48.968;10.124;2023-02-01T08:00:04;6.93;;;2.97;;
71639;SDS011;60912;48.968;10.124;2023-02-01T08:02:58;6.80;;;2.78;;
71639;SDS011;60912;48.968;10.124;2023-02-01T08:05:24;5.72;;;2.90;;
71639;SDS011;60912;48.968;10.124;2023-02-01T08:07:50;5.23;;;2.53;;
71639;SDS011;60912;48.968;10.124;2023-02-01T08:10:42;7.28;;;2.50;;
71639;SDS011;60912;48.968;10.124;2023-02-01T08:13:07;6.70;;;2.80;;
71639;SDS011;60912;48.968;10.124;2023-02-01T08:15:33;8.50;;;3.20;;
71639;SDS011;60912;48.968;10.124;2023-02-01T08:18:01;6.70;;;3.03;;
71639;SDS011;60912;48.968;10.124;2023-02-01T08:20:45;7.82;;;2.40;;
71639;SDS011;60912;48.968;10.124;2023-02-01T08:23:15;7.47;;;3.10;;
71639;SDS011;60912;48.968;10.124;2023-02-01T08:25:44;5.15;;;2.47;;
71639;SDS011;60912;48.968;10.124;2023-02-01T08:28:19;9.73;;;3.10;;
71639;SDS011;60912;48.968;10.124;2023-02-01T08:30:48;7.40;;;2.45;;
71639;SDS011;60912;48.968;10.124;2023-02-01T08:33:19;7.78;;;2.60;;
71639;SDS011;60912;48.968;10.124;2023-02-01T08:35:45;7.43;;;2.80;;
71639;SDS011;60912;48.968;10.124;2023-02-01T08:38:10;11.93;;;2.93;;
71639;SDS011;60912;48.968;10.124;2023-02-01T08:40:43;9.00;;;2.53;;
71639;SDS011;60912;48.968;10.124;2023-02-01T08:43:18;5.00;;;2.40;;
71639;SDS011;60912;48.968;10.124;2023-02-01T08:45:44;5.93;;;2.40;;
71639;SDS011;60912;48.968;10.124;2023-02-01T08:48:10;6.95;;;2.47;;
71639;SDS011;60912;48.968;10.124;2023-02-01T08:50:56;6.47;;;2.17;;
71639;SDS011;60912;48.968;10.124;2023-02-01T08:53:54;7.33;;;3.20;;
71639;SDS011;60912;48.968;10.124;2023-02-01T08:56:25;6.53;;;2.70;;
71639;SDS011;60912;48.968;10.124;2023-02-01T09:01:25;9.15;;;3.35;;
71639;SDS011;60912;48.968;10.124;2023-02-01T09:04:11;8.73;;;3.10;;
71639;SDS011;60912;48.968;10.124;2023-02-01T09:06:39;8.75;;;2.88;;
71639;SDS011;60912;48.968;10.124;2023-02-01T09:09:21;9.85;;;2.67;;
71639;SDS011;60912;48.968;10.124;2023-02-01T09:11:59;5.77;;;2.60;;
71639;SDS011;60912;48.968;10.124;2023-02-01T09:14:40;8.27;;;2.70;;
71639;SDS011;60912;48.968;10.124;2023-02-01T09:17:12;13.20;;;2.92;;
71639;SDS011;60912;48.968;10.124;2023-02-01T09:19:55;9.77;;;2.90;;
71639;SDS011;60912;48.968;10.124;2023-02-01T09:22:23;13.85;;;3.50;;
71639;SDS011;60912;48.968;10.124;2023-02-01T09:27:36;9.95;;;3.13;;
71639;SDS011;60912;48.968;10.124;2023-02-01T09:32:52;10.20;;;2.80;;
71639;SDS011;60912;48.968;10.124;2023-02-01T09:35:54;9.27;;;2.50;;
71639;SDS011;60912;48.968;10.124;2023-02-01T09:38:20;9.00;;;2.80;;
71639;SDS011;60912;48.968;10.124;2023-02-01T09:44:41;11.13;;;2.53;;
71639;SDS011;60912;48.968;10.124;2023-02-01T09:47:39;9.50;;;2.58;;
71639;SDS011;60912;48.968;10.124;2023-02-01T10:00:15;10.67;;;3.50;;
71639;SDS011;60912;48.968;10.124;2023-02-01T10:17:04;7.90;;;2.63;;
71639;SDS011;60912;48.968;10.124;2023-02-01T10:20:02;8.15;;;2.42;;
71639;SDS011;60912;48.968;10.124;2023-02-01T10:22:45;12.73;;;2.70;;
71639;SDS011;60912;48.968;10.124;2023-02-01T10:25:57;12.90;;;2.72;;
71639;SDS011;60912;48.968;10.124;2023-02-01T10:32:20;9.20;;;2.40;;
71639;SDS011;60912;48.968;10.124;2023-02-01T10:41:50;9.25;;;2.25;;
71639;SDS011;60912;48.968;10.124;2023-02-01T10:44:33;7.15;;;2.20;;
71639;SDS011;60912;48.968;10.124;2023-02-01T10:57:10;12.15;;;3.10;;
71639;SDS011;60912;48.968;10.124;2023-02-01T11:02:55;11.90;;;2.93;;
71639;SDS011;60912;48.968;10.124;2023-02-01T11:08:55;10.35;;;2.28;;
71639;SDS011;60912;48.968;10.124;2023-02-01T11:14:46;13.40;;;2.40;;
71639;SDS011;60912;48.968;10.124;2023-02-01T11:17:45;12.20;;;2.67;;
71639;SDS011;60912;48.968;10.124;2023-02-01T11:31:04;13.27;;;2.30;;
71639;SDS011;60912;48.968;10.124;2023-02-01T13:00:26;13.82;;;1.77;;
71639;SDS011;60912;48.968;10.124;2023-02-01T13:11:43;10.68;;;1.90;;
71639;SDS011;60912;48.968;10.124;2023-02-01T13:14:25;8.02;;;1.67;;
71639;SDS011;60912;48.968;10.124;2023-02-01T13:17:05;7.60;;;1.70;;
71639;SDS011;60912;48.968;10.124;2023-02-01T13:22:10;11.03;;;1.80;;
71639;SDS011;60912;48.968;10.124;2023-02-01T13:43:00;9.90;;;1.60;;
71639;SDS011;60912;48.968;10.124;2023-02-01T13:45:36;11.07;;;1.90;;
71639;SDS011;60912;48.968;10.124;2023-02-01T13:48:18;11.60;;;2.22;;
71639;SDS011;60912;48.968;10.124;2023-02-01T13:50:56;11.30;;;1.73;;
71639;SDS011;60912;48.968;10.124;2023-02-01T13:53:49;10.30;;;1.67;;
71639;SDS011;60912;48.968;10.124;2023-02-01T13:56:18;10.02;;;1.70;;
71639;SDS011;60912;48.968;10.124;2023-02-01T13:58:50;14.52;;;1.80;;
71639;SDS011;60912;48.968;10.124;2023-02-01T14:03:56;10.87;;;1.80;;
71639;SDS011;60912;48.968;10.124;2023-02-01T14:06:43;12.18;;;1.95;;
71639;SDS011;60912;48.968;10.124;2023-02-01T14:09:18;12.87;;;1.77;;
71639;SDS011;60912;48.968;10.124;2023-02-01T14:11:56;10.35;;;1.83;;
71639;SDS011;60912;48.968;10.124;2023-02-01T14:14:50;10.25;;;1.75;;
71639;SDS011;60912;48.968;10.124;2023-02-01T14:17:41;15.80;;;2.28;;
71639;SDS011;60912;48.968;10.124;2023-02-01T14:23:21;8.93;;;1.60;;
71639;SDS011;60912;48.968;10.124;2023-02-01T14:26:01;9.20;;;1.40;;
71639;SDS011;60912;48.968;10.124;2023-02-01T14:28:29;6.20;;;1.70;;
71639;SDS011;60912;48.968;10.124;2023-02-01T14:30:56;8.52;;;1.88;;
71639;SDS011;60912;48.968;10.124;2023-02-01T14:33:23;11.27;;;2.10;;
71639;SDS011;60912;48.968;10.124;2023-02-01T14:36:08;10.73;;;1.90;;
71639;SDS011;60912;48.968;10.124;2023-02-01T14:38:49;10.45;;;1.55;;
71639;SDS011;60912;48.968;10.124;2023-02-01T14:44:25;11.00;;;2.00;;
71639;SDS011;60912;48.968;10.124;2023-02-01T14:52:36;9.73;;;1.83;;
71639;SDS011;60912;48.968;10.124;2023-02-01T14:56:09;12.25;;;2.63;;
71639;SDS011;60912;48.968;10.124;2023-02-01T15:03:56;7.73;;;1.87;;
71639;SDS011;60912;48.968;10.124;2023-02-01T15:15:10;14.45;;;2.05;;
71639;SDS011;60912;48.968;10.124;2023-02-01T15:17:51;11.10;;;1.93;;
71639;SDS011;60912;48.968;10.124;2023-02-01T15:20:30;8.60;;;1.75;;
71639;SDS011;60912;48.968;10.124;2023-02-01T15:23:01;14.07;;;1.80;;
71639;SDS011;60912;48.968;10.124;2023-02-01T15:25:52;9.90;;;2.05;;
71639;SDS011;60912;48.968;10.124;2023-02-01T15:28:28;9.15;;;2.10;;
71639;SDS011;60912;48.968;10.124;2023-02-01T15:31:01;9.53;;;1.60;;
71639;SDS011;60912;48.968;10.124;2023-02-01T15:33:44;8.55;;;1.85;;
71639;SDS011;60912;48.968;10.124;2023-02-01T15:36:43;11.75;;;2.50;;
71639;SDS011;60912;48.968;10.124;2023-02-01T15:39:30;10.13;;;2.00;;
71639;SDS011;60912;48.968;10.124;2023-02-01T15:42:09;12.73;;;2.00;;
71639;SDS011;60912;48.968;10.124;2023-02-01T15:44:40;11.67;;;1.93;;
71639;SDS011;60912;48.968;10.124;2023-02-01T15:50:40;8.38;;;1.80;;
71639;SDS011;60912;48.968;10.124;2023-02-01T15:53:28;10.00;;;1.98;;
71639;SDS011;60912;48.968;10.124;2023-02-01T15:56:05;9.80;;;1.95;;
71639;SDS011;60912;48.968;10.124;2023-02-01T15:58:34;10.00;;;1.80;;
71639;SDS011;60912;48.968;10.124;2023-02-01T16:01:02;7.72;;;1.70;;
71639;SDS011;60912;48.968;10.124;2023-02-01T16:03:35;11.35;;;1.90;;
71639;SDS011;60912;48.968;10.124;2023-02-01T16:06:09;9.30;;;1.90;;
71639;SDS011;60912;48.968;10.124;2023-02-01T16:11:26;9.20;;;1.80;;
71639;SDS011;60912;48.968;10.124;2023-02-01T16:13:56;10.80;;;2.72;;
71639;SDS011;60912;48.968;10.124;2023-02-01T16:16:23;10.88;;;2.42;;
71639;SDS011;60912;48.968;10.124;2023-02-01T16:18:49;11.57;;;3.70;;
71639;SDS011;60912;48.968;10.124;2023-02-01T16:21:15;10.05;;;1.92;;
71639;SDS011;60912;48.968;10.124;2023-02-01T16:23:47;9.33;;;2.10;;
71639;SDS011;60912;48.968;10.124;2023-02-01T16:26:14;10.05;;;1.77;;
71639;SDS011;60912;48.968;10.124;2023-02-01T16:28:39;10.83;;;1.90;;
71639;SDS011;60912;48.968;10.124;2023-02-01T16:31:05;17.52;;;2.55;;
71639;SDS011;60912;48.968;10.124;2023-02-01T16:33:33;12.90;;;1.90;;
71639;SDS011;60912;48.968;10.124;2023-02-01T16:35:58;10.38;;;1.85;;
71639;SDS011;60912;48.968;10.124;2023-02-01T16:38:27;7.47;;;1.50;;
71639;SDS011;60912;48.968;10.124;2023-02-01T16:40:58;12.02;;;2.20;;
71639;SDS011;60912;48.968;10.124;2023-02-01T16:43:28;12.52;;;2.67;;
71639;SDS011;60912;48.968;10.124;2023-02-01T16:45:59;7.43;;;1.88;;
71639;SDS011;60912;48.968;10.124;2023-02-01T16:48:29;7.78;;;1.90;;
71639;SDS011;60912;48.968;10.124;2023-02-01T16:50:55;8.60;;;1.80;;
71639;SDS011;60912;48.968;10.124;2023-02-01T16:53:23;8.98;;;2.05;;
71639;SDS011;60912;48.968;10.124;2023-02-01T16:55:56;12.77;;;2.00;;
71639;SDS011;60912;48.968;10.124;2023-02-01T16:58:22;15.38;;;1.90;;
71639;SDS011;60912;48.968;10.124;2023-02-01T17:00:50;8.40;;;1.80;;
71639;SDS011;60912;48.968;10.124;2023-02-01T17:03:19;8.83;;;1.70;;
71639;SDS011;60912;48.968;10.124;2023-02-01T17:05:49;12.18;;;1.90;;
71639;SDS011;60912;48.968;10.124;2023-02-01T17:08:22;10.90;;;2.75;;
71639;SDS011;60912;48.968;10.124;2023-02-01T17:10:53;13.05;;;2.30;;
71639;SDS011;60912;48.968;10.124;2023-02-01T17:13:19;11.00;;;2.27;;
71639;SDS011;60912;48.968;10.124;2023-02-01T17:15:49;11.35;;;1.88;;
71639;SDS011;60912;48.968;10.124;2023-02-01T17:18:38;11.37;;;2.50;;
71639;SDS011;60912;48.968;10.124;2023-02-01T17:21:08;11.60;;;2.17;;
71639;SDS011;60912;48.968;10.124;2023-02-01T17:23:41;10.07;;;2.20;;
71639;SDS011;60912;48.968;10.124;2023-02-01T17:26:11;16.63;;;2.70;;
71639;SDS011;60912;48.968;10.124;2023-02-01T17:28:36;8.63;;;2.00;;
71639;SDS011;60912;48.968;10.124;2023-02-01T17:31:05;11.23;;;2.17;;
71639;SDS011;60912;48.968;10.124;2023-02-01T17:33:31;12.00;;;2.45;;
71639;SDS011;60912;48.968;10.124;2023-02-01T17:36:03;17.65;;;2.40;;
71639;SDS011;60912;48.968;10.124;2023-02-01T17:38:35;9.50;;;2.20;;
71639;SDS011;60912;48.968;10.124;2023-02-01T17:41:03;13.23;;;2.25;;
71639;SDS011;60912;48.968;10.124;2023-02-01T17:43:31;15.98;;;3.13;;
71639;SDS011;60912;48.968;10.124;2023-02-01T17:49:01;9.57;;;1.88;;
71639;SDS011;60912;48.968;10.124;2023-02-01T17:51:27;10.52;;;1.83;;
71639;SDS011;60912;48.968;10.124;2023-02-01T17:53:55;12.75;;;2.35;;
71639;SDS011;60912;48.968;10.124;2023-02-01T17:56:23;6.80;;;2.00;;
71639;SDS011;60912;48.968;10.124;2023-02-01T17:58:49;10.38;;;2.33;;
71639;SDS011;60912;48.968;10.124;2023-02-01T18:01:19;8.60;;;1.83;;
71639;SDS011;60912;48.968;10.124;2023-02-01T18:03:58;8.87;;;2.07;;
71639;SDS011;60912;48.968;10.124;2023-02-01T18:06:24;10.45;;;2.10;;
71639;SDS011;60912;48.968;10.124;2023-02-01T18:11:24;10.15;;;1.90;;
71639;SDS011;60912;48.968;10.124;2023-02-01T18:13:51;12.65;;;2.50;;
71639;SDS011;60912;48.968;10.124;2023-02-01T18:16:25;16.30;;;2.50;;
71639;SDS011;60912;48.968;10.124;2023-02-01T18:18:52;8.93;;;1.80;;
71639;SDS011;60912;48.968;10.124;2023-02-01T18:21:18;12.50;;;1.90;;
71639;SDS011;60912;48.968;10.124;2023-02-01T18:23:46;11.30;;;1.93;;
71639;SDS011;60912;48.968;10.124;2023-02-01T18:26:15;14.23;;;1.85;;
71639;SDS011;60912;48.968;10.124;2023-02-01T18:28:41;5.97;;;1.70;;
71639;SDS011;60912;48.968;10.124;2023-02-01T18:31:18;10.50;;;1.80;;
71639;SDS011;60912;48.968;10.124;2023-02-01T18:33:59;11.38;;;2.15;;
71639;SDS011;60912;48.968;10.124;2023-02-01T18:36:25;8.93;;;1.57;;
71639;SDS011;60912;48.968;10.124;2023-02-01T18:38:55;15.27;;;2.83;;
71639;SDS011;60912;48.968;10.124;2023-02-01T18:41:23;13.38;;;2.20;;
71639;SDS011;60912;48.968;10.124;2023-02-01T18:43:50;10.05;;;2.20;;
71639;SDS011;60912;48.968;10.124;2023-02-01T18:46:19;10.25;;;2.33;;
71639;SDS011;60912;48.968;10.124;2023-02-01T18:48:54;7.67;;;2.07;;
71639;SDS011;60912;48.968;10.124;2023-02-01T18:51:31;9.63;;;2.00;;
71639;SDS011;60912;48.968;10.124;2023-02-01T18:54:09;9.45;;;2.00;;
71639;SDS011;60912;48.968;10.124;2023-02-01T18:56:44;8.48;;;1.90;;
71639;SDS011;60912;48.968;10.124;2023-02-01T18:59:12;10.65;;;2.35;;
71639;SDS011;60912;48.968;10.124;2023-02-01T19:01:38;11.30;;;1.80;;
71639;SDS011;60912;48.968;10.124;2023-02-01T19:04:04;8.05;;;1.73;;
71639;SDS011;60912;48.968;10.124;2023-02-01T19:06:30;7.55;;;1.60;;
71639;SDS011;60912;48.968;10.124;2023-02-01T19:08:56;9.67;;;1.90;;
71639;SDS011;60912;48.968;10.124;2023-02-01T19:11:39;9.10;;;1.80;;
71639;SDS011;60912;48.968;10.124;2023-02-01T19:14:30;9.68;;;1.60;;
71639;SDS011;60912;48.968;10.124;2023-02-01T19:20:41;8.23;;;1.60;;
71639;SDS011;60912;48.968;10.124;2023-02-01T19:23:15;11.20;;;2.23;;
71639;SDS011;60912;48.968;10.124;2023-02-01T19:25:47;7.68;;;1.85;;
71639;SDS011;60912;48.968;10.124;2023-02-01T19:28:16;10.27;;;1.80;;
71639;SDS011;60912;48.968;10.124;2023-02-01T19:30:41;10.40;;;2.43;;
71639;SDS011;60912;48.968;10.124;2023-02-01T19:33:11;11.75;;;1.90;;
71639;SDS011;60912;48.968;10.124;2023-02-01T19:35:49;10.32;;;2.17;;
71639;SDS011;60912;48.968;10.124;2023-02-01T19:38:30;8.18;;;1.77;;
71639;SDS011;60912;48.968;10.124;2023-02-01T19:41:06;8.35;;;1.80;;
71639;SDS011;60912;48.968;10.124;2023-02-01T19:43:41;9.17;;;1.40;;
71639;SDS011;60912;48.968;10.124;2023-02-01T19:46:24;8.10;;;2.00;;
71639;SDS011;60912;48.968;10.124;2023-02-01T19:48:53;14.50;;;2.00;;
71639;SDS011;60912;48.968;10.124;2023-02-01T19:51:37;9.80;;;1.92;;
71639;SDS011;60912;48.968;10.124;2023-02-01T19:54:09;11.32;;;2.00;;
71639;SDS011;60912;48.968;10.124;2023-02-01T19:56:35;13.10;;;2.13;;
71639;SDS011;60912;48.968;10.124;2023-02-01T19:59:11;9.05;;;2.40;;
71639;SDS011;60912;48.968;10.124;2023-02-01T20:01:39;8.35;;;2.13;;
71639;SDS011;60912;48.968;10.124;2023-02-01T20:04:06;8.80;;;1.88;;
71639;SDS011;60912;48.968;10.124;2023-02-01T20:06:33;7.93;;;1.93;;
71639;SDS011;60912;48.968;10.124;2023-02-01T20:09:02;8.23;;;1.70;;
71639;SDS011;60912;48.968;10.124;2023-02-01T20:11:28;11.60;;;2.08;;
71639;SDS011;60912;48.968;10.124;2023-02-01T20:13:54;7.00;;;1.60;;
71639;SDS011;60912;48.968;10.124;2023-02-01T20:16:25;9.70;;;1.90;;
71639;SDS011;60912;48.968;10.124;2023-02-01T20:18:51;13.85;;;2.00;;
71639;SDS011;60912;48.968;10.124;2023-02-01T20:21:17;8.63;;;1.77;;
71639;SDS011;60912;48.968;10.124;2023-02-01T20:23:47;11.18;;;2.05;;